sensor_id;sensor_type;location;lat;lon;timestamp;pressure;altitude;pressure_sealevel;temperature;humidity
28606;BME280;46498;49.968;7.754;2023-05-14T00:00:27;-18583.00;;;9.57;100.00
28606;BME280;46498;49.968;7.754;2023-05-14T00:05:28;-18588.00;;;9.72;100.00
28606;BME280;46498;49.968;7.754;2023-05-14T00:10:29;-18593.00;;;9.91;100.00
28606;BME280;46498;49.968;7.754;2023-05-14T00:15:30;-18599.00;;;10.09;100.00
28606;BME280;46498;49.968;7.754;2023-05-14T00:20:34;-18604.00;;;10.24;100.00
28606;BME280;46498;49.968;7.754;2023-05-14T00:25:35;-18612.00;;;10.51;100.00
28606;BME280;46498;49.968;7.754;2023-05-14T00:30:36;-18615.00;;;10.57;100.00
28606;BME280;46498;49.968;7.754;2023-05-14T00:35:37;-18620.00;;;10.75;100.00
28606;BME280;46498;49.968;7.754;2023-05-14T00:40:38;-18620.00;;;10.73;100.00
28606;BME280;46498;49.968;7.754;2023-05-14T00:45:39;-18619.00;;;10.72;100.00
28606;BME280;46498;49.968;7.754;2023-05-14T00:50:40;-18622.00;;;10.81;100.00
28606;BME280;46498;49.968;7.754;2023-05-14T00:55:42;-18621.00;;;10.77;100.00
28606;BME280;46498;49.968;7.754;2023-05-14T01:00:43;-18621.00;;;10.79;100.00
28606;BME280;46498;49.968;7.754;2023-05-14T01:07:14;-18619.00;;;10.71;100.00
28606;BME280;46498;49.968;7.754;2023-05-14T01:12:41;-18620.00;;;10.75;100.00
28606;BME280;46498;49.968;7.754;2023-05-14T01:17:50;-18621.00;;;10.79;100.00
28606;BME280;46498;49.968;7.754;2023-05-14T01:22:52;-18618.00;;;10.68;100.00
28606;BME280;46498;49.968;7.754;2023-05-14T01:28:18;-18617.00;;;10.66;100.00
28606;BME280;46498;49.968;7.754;2023-05-14T01:33:21;-18621.00;;;10.78;100.00
28606;BME280;46498;49.968;7.754;2023-05-14T01:38:24;-18617.00;;;10.65;100.00
28606;BME280;46498;49.968;7.754;2023-05-14T01:43:27;-18619.00;;;10.73;100.00
28606;BME280;46498;49.968;7.754;2023-05-14T01:48:29;-18621.00;;;10.78;100.00
28606;BME280;46498;49.968;7.754;2023-05-14T01:53:30;-18616.00;;;10.62;100.00
28606;BME280;46498;49.968;7.754;2023-05-14T01:58:34;-18616.00;;;10.63;100.00
28606;BME280;46498;49.968;7.754;2023-05-14T02:03:35;-18617.00;;;10.63;100.00
28606;BME280;46498;49.968;7.754;2023-05-14T02:08:36;-18614.00;;;10.55;100.00
28606;BME280;46498;49.968;7.754;2023-05-14T02:13:37;-18612.00;;;10.48;100.00
28606;BME280;46498;49.968;7.754;2023-05-14T02:18:38;-18609.00;;;10.40;100.00
28606;BME280;46498;49.968;7.754;2023-05-14T02:23:39;-18605.00;;;10.27;100.00
28606;BME280;46498;49.968;7.754;2023-05-14T02:28:42;-18601.00;;;10.15;100.00
28606;BME280;46498;49.968;7.754;2023-05-14T02:33:46;-18597.00;;;10.03;100.00
28606;BME280;46498;49.968;7.754;2023-05-14T02:38:47;-18591.00;;;9.84;100.00
28606;BME280;46498;49.968;7.754;2023-05-14T02:43:48;-18589.00;;;9.78;100.00
28606;BME280;46498;49.968;7.754;2023-05-14T02:48:49;-18583.00;;;9.58;100.00
28606;BME280;46498;49.968;7.754;2023-05-14T02:53:50;-18579.00;;;9.44;100.00
28606;BME280;46498;49.968;7.754;2023-05-14T02:58:51;-18568.00;;;9.12;100.00
28606;BME280;46498;49.968;7.754;2023-05-14T03:03:52;-18561.00;;;8.88;100.00
28606;BME280;46498;49.968;7.754;2023-05-14T03:08:53;-18560.00;;;8.87;100.00
28606;BME280;46498;49.968;7.754;2023-05-14T03:13:53;-18564.00;;;9.00;100.00
28606;BME280;46498;49.968;7.754;2023-05-14T03:18:54;-18566.00;;;9.04;100.00
28606;BME280;46498;49.968;7.754;2023-05-14T03:23:55;-18573.00;;;9.28;100.00
28606;BME280;46498;49.968;7.754;2023-05-14T03:28:56;-18569.00;;;9.14;100.00
28606;BME280;46498;49.968;7.754;2023-05-14T03:33:57;-18572.00;;;9.23;100.00
28606;BME280;46498;49.968;7.754;2023-05-14T03:38:58;-18564.00;;;8.97;100.00
28606;BME280;46498;49.968;7.754;2023-05-14T03:43:58;-18567.00;;;9.08;100.00
28606;BME280;46498;49.968;7.754;2023-05-14T03:48:59;-18565.00;;;9.00;100.00
28606;BME280;46498;49.968;7.754;2023-05-14T03:54:02;-18563.00;;;8.96;100.00
28606;BME280;46498;49.968;7.754;2023-05-14T03:59:03;-18562.00;;;8.93;100.00
28606;BME280;46498;49.968;7.754;2023-05-14T04:04:05;-18563.00;;;8.96;100.00
28606;BME280;46498;49.968;7.754;2023-05-14T04:09:06;-18565.00;;;9.03;100.00
28606;BME280;46498;49.968;7.754;2023-05-14T04:14:09;-18562.00;;;8.94;100.00
28606;BME280;46498;49.968;7.754;2023-05-14T04:19:11;-18563.00;;;8.96;100.00
28606;BME280;46498;49.968;7.754;2023-05-14T04:24:12;-18560.00;;;8.85;100.00
28606;BME280;46498;49.968;7.754;2023-05-14T04:29:12;-18560.00;;;8.86;100.00
28606;BME280;46498;49.968;7.754;2023-05-14T04:34:13;-18563.00;;;8.96;100.00
28606;BME280;46498;49.968;7.754;2023-05-14T04:39:14;-18570.00;;;9.18;100.00
28606;BME280;46498;49.968;7.754;2023-05-14T04:44:15;-18576.00;;;9.37;100.00
28606;BME280;46498;49.968;7.754;2023-05-14T04:54:19;-18580.00;;;9.49;100.00
28606;BME280;46498;49.968;7.754;2023-05-14T04:59:21;-18576.00;;;9.36;100.00
28606;BME280;46498;49.968;7.754;2023-05-14T05:04:22;-18572.00;;;9.24;100.00
28606;BME280;46498;49.968;7.754;2023-05-14T05:09:23;-18572.00;;;9.23;100.00
28606;BME280;46498;49.968;7.754;2023-05-14T05:14:24;-18571.00;;;9.22;100.00
28606;BME280;46498;49.968;7.754;2023-05-14T05:19:25;-18579.00;;;9.46;100.00
28606;BME280;46498;49.968;7.754;2023-05-14T05:24:40;-18594.00;;;9.93;100.00
28606;BME280;46498;49.968;7.754;2023-05-14T05:29:42;-18608.00;;;10.36;100.00
28606;BME280;46498;49.968;7.754;2023-05-14T05:34:43;-18611.00;;;10.46;100.00
28606;BME280;46498;49.968;7.754;2023-05-14T05:39:44;-18610.00;;;10.43;100.00
28606;BME280;46498;49.968;7.754;2023-05-14T05:44:47;-18623.00;;;10.84;100.00
28606;BME280;46498;49.968;7.754;2023-05-14T05:49:48;-18635.00;;;11.22;100.00
28606;BME280;46498;49.968;7.754;2023-05-14T05:54:49;-18644.00;;;11.49;100.00
28606;BME280;46498;49.968;7.754;2023-05-14T05:59:50;-18640.00;;;11.38;100.00
28606;BME280;46498;49.968;7.754;2023-05-14T06:04:50;-18655.00;;;11.84;100.00
28606;BME280;46498;49.968;7.754;2023-05-14T06:09:52;-18665.00;;;12.17;100.00
28606;BME280;46498;49.968;7.754;2023-05-14T06:14:54;-18666.00;;;12.20;100.00
28606;BME280;46498;49.968;7.754;2023-05-14T06:19:57;-18665.00;;;12.16;100.00
28606;BME280;46498;49.968;7.754;2023-05-14T06:24:58;-18676.00;;;12.49;100.00
28606;BME280;46498;49.968;7.754;2023-05-14T06:29:58;-18690.00;;;12.94;100.00
28606;BME280;46498;49.968;7.754;2023-05-14T06:34:59;-18684.00;;;12.74;100.00
28606;BME280;46498;49.968;7.754;2023-05-14T06:40:00;-18680.00;;;12.63;99.56
28606;BME280;46498;49.968;7.754;2023-05-14T06:45:01;-18684.00;;;12.76;98.69
28606;BME280;46498;49.968;7.754;2023-05-14T06:50:03;-18688.00;;;12.87;99.56
28606;BME280;46498;49.968;7.754;2023-05-14T06:55:04;-18702.00;;;13.33;98.37
28606;BME280;46498;49.968;7.754;2023-05-14T07:00:06;-18709.00;;;13.55;93.73
28606;BME280;46498;49.968;7.754;2023-05-14T07:05:07;-18714.00;;;13.68;89.07
28606;BME280;46498;49.968;7.754;2023-05-14T07:10:08;-18726.00;;;14.06;92.19
28606;BME280;46498;49.968;7.754;2023-05-14T07:15:09;-18710.00;;;13.58;91.18
28606;BME280;46498;49.968;7.754;2023-05-14T07:20:11;-18709.00;;;13.53;93.71
28606;BME280;46498;49.968;7.754;2023-05-14T07:25:12;-18711.00;;;13.61;94.24
28606;BME280;46498;49.968;7.754;2023-05-14T07:30:13;-18712.00;;;13.64;95.54
28606;BME280;46498;49.968;7.754;2023-05-14T07:35:15;-18709.00;;;13.55;94.28
28606;BME280;46498;49.968;7.754;2023-05-14T07:40:15;-18693.00;;;13.03;94.22
28606;BME280;46498;49.968;7.754;2023-05-14T07:45:16;-18702.00;;;13.31;92.72
28606;BME280;46498;49.968;7.754;2023-05-14T07:50:17;-18694.00;;;13.05;93.37
28606;BME280;46498;49.968;7.754;2023-05-14T07:55:19;-18705.00;;;13.42;95.77
28606;BME280;46498;49.968;7.754;2023-05-14T08:00:20;-18703.00;;;13.36;87.47
28606;BME280;46498;49.968;7.754;2023-05-14T08:05:22;-18713.00;;;13.66;89.94
28606;BME280;46498;49.968;7.754;2023-05-14T08:10:22;-18697.00;;;13.16;90.40
28606;BME280;46498;49.968;7.754;2023-05-14T08:15:24;-18690.00;;;12.95;91.05
28606;BME280;46498;49.968;7.754;2023-05-14T08:20:29;-18711.00;;;13.59;89.46
28606;BME280;46498;49.968;7.754;2023-05-14T08:25:30;-18727.00;;;14.11;87.66
28606;BME280;46498;49.968;7.754;2023-05-14T08:30:31;-18730.00;;;14.18;81.75
28606;BME280;46498;49.968;7.754;2023-05-14T08:35:32;-18721.00;;;13.92;83.54
28606;BME280;46498;49.968;7.754;2023-05-14T08:40:33;-18739.00;;;14.48;90.46
28606;BME280;46498;49.968;7.754;2023-05-14T08:45:35;-18725.00;;;14.05;83.54
28606;BME280;46498;49.968;7.754;2023-05-14T08:50:37;-18734.00;;;14.33;89.74
28606;BME280;46498;49.968;7.754;2023-05-14T08:55:38;-18745.00;;;14.67;79.82
28606;BME280;46498;49.968;7.754;2023-05-14T09:00:39;-18756.00;;;15.02;80.83
28606;BME280;46498;49.968;7.754;2023-05-14T09:05:40;-18757.00;;;15.05;77.97
28606;BME280;46498;49.968;7.754;2023-05-14T09:10:41;-18752.00;;;14.89;76.92
28606;BME280;46498;49.968;7.754;2023-05-14T09:15:42;-18757.00;;;15.03;76.79
28606;BME280;46498;49.968;7.754;2023-05-14T09:20:45;-18737.00;;;14.42;81.29
28606;BME280;46498;49.968;7.754;2023-05-14T09:25:46;-18734.00;;;14.32;81.16
28606;BME280;46498;49.968;7.754;2023-05-14T09:30:50;-18733.00;;;14.28;83.34
28606;BME280;46498;49.968;7.754;2023-05-14T09:35:57;-18750.00;;;14.81;74.41
28606;BME280;46498;49.968;7.754;2023-05-14T09:40:59;-18750.00;;;14.84;78.67
28606;BME280;46498;49.968;7.754;2023-05-14T09:46:00;-18763.00;;;15.24;76.55
28606;BME280;46498;49.968;7.754;2023-05-14T09:51:01;-18779.00;;;15.74;80.20
28606;BME280;46498;49.968;7.754;2023-05-14T09:56:05;-18767.00;;;15.35;75.35
28606;BME280;46498;49.968;7.754;2023-05-14T10:01:06;-18771.00;;;15.49;81.59
28606;BME280;46498;49.968;7.754;2023-05-14T10:06:07;-18800.00;;;16.38;76.75
28606;BME280;46498;49.968;7.754;2023-05-14T10:11:17;-18803.00;;;16.49;72.76
28606;BME280;46498;49.968;7.754;2023-05-14T10:16:30;-18803.00;;;16.49;77.59
28606;BME280;46498;49.968;7.754;2023-05-14T10:21:37;-18816.00;;;16.91;72.54
28606;BME280;46498;49.968;7.754;2023-05-14T10:26:39;-18796.00;;;16.28;75.15
28606;BME280;46498;49.968;7.754;2023-05-14T10:31:46;-18815.00;;;16.88;74.32
28606;BME280;46498;49.968;7.754;2023-05-14T10:36:47;-18813.00;;;16.80;73.14
28606;BME280;46498;49.968;7.754;2023-05-14T10:41:48;-18832.00;;;17.40;67.52
28606;BME280;46498;49.968;7.754;2023-05-14T10:46:49;-18854.00;;;18.10;63.45
28606;BME280;46498;49.968;7.754;2023-05-14T10:51:52;-18865.00;;;18.43;58.40
28606;BME280;46498;49.968;7.754;2023-05-14T10:56:53;-18874.00;;;18.73;58.07
28606;BME280;46498;49.968;7.754;2023-05-14T11:01:56;-18891.00;;;19.25;56.09
28606;BME280;46498;49.968;7.754;2023-05-14T11:06:57;-18887.00;;;19.13;52.07
28606;BME280;46498;49.968;7.754;2023-05-14T11:11:58;-18881.00;;;18.93;53.88
28606;BME280;46498;49.968;7.754;2023-05-14T11:16:59;-18888.00;;;19.17;56.02
28606;BME280;46498;49.968;7.754;2023-05-14T11:22:04;-18881.00;;;18.94;51.27
28606;BME280;46498;49.968;7.754;2023-05-14T11:27:07;-18859.00;;;18.26;52.98
28606;BME280;46498;49.968;7.754;2023-05-14T11:32:08;-18863.00;;;18.38;57.83
28606;BME280;46498;49.968;7.754;2023-05-14T11:37:10;-18874.00;;;18.73;56.88
28606;BME280;46498;49.968;7.754;2023-05-14T11:42:12;-18880.00;;;18.90;57.35
28606;BME280;46498;49.968;7.754;2023-05-14T11:47:17;-18856.00;;;18.15;57.08
28606;BME280;46498;49.968;7.754;2023-05-14T11:52:18;-18845.00;;;17.81;54.17
28606;BME280;46498;49.968;7.754;2023-05-14T11:57:21;-18817.00;;;16.92;59.26
28606;BME280;46498;49.968;7.754;2023-05-14T12:02:25;-18827.00;;;17.24;63.29
28606;BME280;46498;49.968;7.754;2023-05-14T12:07:28;-18821.00;;;17.05;58.28
28606;BME280;46498;49.968;7.754;2023-05-14T12:12:34;-18816.00;;;16.89;64.07
28606;BME280;46498;49.968;7.754;2023-05-14T12:17:36;-18822.00;;;17.10;65.75
28606;BME280;46498;49.968;7.754;2023-05-14T12:22:37;-18850.00;;;17.98;63.83
28606;BME280;46498;49.968;7.754;2023-05-14T12:27:39;-18875.00;;;18.77;58.24
28606;BME280;46498;49.968;7.754;2023-05-14T12:32:40;-18851.00;;;18.00;58.37
28606;BME280;46498;49.968;7.754;2023-05-14T12:37:41;-18829.00;;;17.31;57.64
28606;BME280;46498;49.968;7.754;2023-05-14T12:42:42;-18771.00;;;15.50;80.63
28606;BME280;46498;49.968;7.754;2023-05-14T12:47:43;-18735.00;;;14.34;92.85
28606;BME280;46498;49.968;7.754;2023-05-14T12:52:44;-18747.00;;;14.74;97.54
28606;BME280;46498;49.968;7.754;2023-05-14T12:57:46;-18753.00;;;14.92;100.00
28606;BME280;46498;49.968;7.754;2023-05-14T13:02:46;-18760.00;;;15.14;100.00
28606;BME280;46498;49.968;7.754;2023-05-14T13:07:47;-18769.00;;;15.43;98.16
28606;BME280;46498;49.968;7.754;2023-05-14T13:12:48;-18795.00;;;16.23;91.51
28606;BME280;46498;49.968;7.754;2023-05-14T13:17:50;-18813.00;;;16.80;90.67
28606;BME280;46498;49.968;7.754;2023-05-14T13:22:51;-18822.00;;;17.10;87.02
28606;BME280;46498;49.968;7.754;2023-05-14T13:27:51;-18803.00;;;16.50;76.06
28606;BME280;46498;49.968;7.754;2023-05-14T13:32:52;-18803.00;;;16.49;72.15
28606;BME280;46498;49.968;7.754;2023-05-14T13:37:54;-18821.00;;;17.07;68.49
28606;BME280;46498;49.968;7.754;2023-05-14T13:42:56;-18821.00;;;17.04;75.46
28606;BME280;46498;49.968;7.754;2023-05-14T13:47:56;-18816.00;;;16.90;75.83
28606;BME280;46498;49.968;7.754;2023-05-14T13:52:57;-18792.00;;;16.16;80.04
28606;BME280;46498;49.968;7.754;2023-05-14T13:58:00;-18806.00;;;16.59;71.76
28606;BME280;46498;49.968;7.754;2023-05-14T14:03:01;-18824.00;;;17.16;73.71
28606;BME280;46498;49.968;7.754;2023-05-14T14:08:02;-18822.00;;;17.07;67.51
28606;BME280;46498;49.968;7.754;2023-05-14T14:13:23;-18831.00;;;17.38;67.69
28606;BME280;46498;49.968;7.754;2023-05-14T14:18:28;-18833.00;;;17.43;73.44
28606;BME280;46498;49.968;7.754;2023-05-14T14:23:29;-18829.00;;;17.32;73.43
28606;BME280;46498;49.968;7.754;2023-05-14T14:28:29;-18858.00;;;18.23;68.49
28606;BME280;46498;49.968;7.754;2023-05-14T14:33:33;-18871.00;;;18.63;63.43
28606;BME280;46498;49.968;7.754;2023-05-14T14:38:34;-18859.00;;;18.24;56.98
28606;BME280;46498;49.968;7.754;2023-05-14T14:43:39;-18874.00;;;18.73;52.98
28606;BME280;46498;49.968;7.754;2023-05-14T14:48:40;-18870.00;;;18.59;56.37
28606;BME280;46498;49.968;7.754;2023-05-14T14:53:42;-18854.00;;;18.09;51.93
28606;BME280;46498;49.968;7.754;2023-05-14T14:58:42;-18862.00;;;18.36;56.72
28606;BME280;46498;49.968;7.754;2023-05-14T15:03:44;-18891.00;;;19.26;50.29
28606;BME280;46498;49.968;7.754;2023-05-14T15:08:47;-18881.00;;;18.96;50.27
28606;BME280;46498;49.968;7.754;2023-05-14T15:13:48;-18869.00;;;18.58;50.23
28606;BME280;46498;49.968;7.754;2023-05-14T15:18:50;-18854.00;;;18.09;53.25
28606;BME280;46498;49.968;7.754;2023-05-14T15:23:50;-18851.00;;;18.00;53.45
28606;BME280;46498;49.968;7.754;2023-05-14T15:28:51;-18850.00;;;17.98;54.90
28606;BME280;46498;49.968;7.754;2023-05-14T15:33:52;-18843.00;;;17.76;59.61
28606;BME280;46498;49.968;7.754;2023-05-14T15:38:55;-18830.00;;;17.35;61.32
28606;BME280;46498;49.968;7.754;2023-05-14T15:43:56;-18831.00;;;17.36;62.64
28606;BME280;46498;49.968;7.754;2023-05-14T15:48:58;-18840.00;;;17.65;60.00
28606;BME280;46498;49.968;7.754;2023-05-14T15:53:59;-18850.00;;;17.96;60.81
28606;BME280;46498;49.968;7.754;2023-05-14T15:59:00;-18848.00;;;17.91;59.60
28606;BME280;46498;49.968;7.754;2023-05-14T16:04:00;-18852.00;;;18.03;59.44
28606;BME280;46498;49.968;7.754;2023-05-14T16:09:01;-18849.00;;;17.93;54.15
28606;BME280;46498;49.968;7.754;2023-05-14T16:14:03;-18846.00;;;17.84;53.86
28606;BME280;46498;49.968;7.754;2023-05-14T16:19:04;-18841.00;;;17.70;54.18
28606;BME280;46498;49.968;7.754;2023-05-14T16:24:06;-18831.00;;;17.36;53.33
28606;BME280;46498;49.968;7.754;2023-05-14T16:29:07;-18820.00;;;17.04;57.75
28606;BME280;46498;49.968;7.754;2023-05-14T16:34:07;-18811.00;;;16.75;61.75
28606;BME280;46498;49.968;7.754;2023-05-14T16:39:08;-18789.00;;;16.04;65.57
28606;BME280;46498;49.968;7.754;2023-05-14T16:44:10;-18777.00;;;15.67;70.11
28606;BME280;46498;49.968;7.754;2023-05-14T16:49:11;-18767.00;;;15.37;79.08
28606;BME280;46498;49.968;7.754;2023-05-14T16:54:13;-18755.00;;;14.99;84.21
28606;BME280;46498;49.968;7.754;2023-05-14T16:59:14;-18742.00;;;14.57;87.50
28606;BME280;46498;49.968;7.754;2023-05-14T17:04:15;-18738.00;;;14.46;88.81
28606;BME280;46498;49.968;7.754;2023-05-14T17:09:17;-18737.00;;;14.43;89.79
28606;BME280;46498;49.968;7.754;2023-05-14T17:14:18;-18731.00;;;14.24;91.97
28606;BME280;46498;49.968;7.754;2023-05-14T17:19:19;-18729.00;;;14.17;93.37
28606;BME280;46498;49.968;7.754;2023-05-14T17:24:20;-18731.00;;;14.23;90.94
28606;BME280;46498;49.968;7.754;2023-05-14T17:29:21;-18731.00;;;14.24;86.77
28606;BME280;46498;49.968;7.754;2023-05-14T17:34:22;-18729.00;;;14.15;87.06
28606;BME280;46498;49.968;7.754;2023-05-14T17:39:23;-18730.00;;;14.18;84.10
28606;BME280;46498;49.968;7.754;2023-05-14T17:44:24;-18724.00;;;14.02;84.01
28606;BME280;46498;49.968;7.754;2023-05-14T17:49:25;-18724.00;;;13.99;85.43
28606;BME280;46498;49.968;7.754;2023-05-14T17:54:26;-18721.00;;;13.93;86.50
28606;BME280;46498;49.968;7.754;2023-05-14T17:59:27;-18724.00;;;13.99;86.02
28606;BME280;46498;49.968;7.754;2023-05-14T18:04:28;-18725.00;;;14.05;85.49
28606;BME280;46498;49.968;7.754;2023-05-14T18:09:28;-18724.00;;;13.99;85.71
28606;BME280;46498;49.968;7.754;2023-05-14T18:14:29;-18723.00;;;13.97;85.25
28606;BME280;46498;49.968;7.754;2023-05-14T18:19:30;-18722.00;;;13.96;85.37
28606;BME280;46498;49.968;7.754;2023-05-14T18:24:31;-18722.00;;;13.94;84.17
28606;BME280;46498;49.968;7.754;2023-05-14T18:29:32;-18722.00;;;13.94;83.01
28606;BME280;46498;49.968;7.754;2023-05-14T18:34:33;-18722.00;;;13.95;83.46
28606;BME280;46498;49.968;7.754;2023-05-14T18:39:33;-18718.00;;;13.83;83.29
28606;BME280;46498;49.968;7.754;2023-05-14T18:44:34;-18717.00;;;13.78;83.41
28606;BME280;46498;49.968;7.754;2023-05-14T18:49:35;-18715.00;;;13.71;84.03
28606;BME280;46498;49.968;7.754;2023-05-14T18:54:38;-18714.00;;;13.68;85.07
28606;BME280;46498;49.968;7.754;2023-05-14T18:59:39;-18712.00;;;13.64;85.27
28606;BME280;46498;49.968;7.754;2023-05-14T19:04:40;-18710.00;;;13.58;85.76
28606;BME280;46498;49.968;7.754;2023-05-14T19:09:52;-18709.00;;;13.53;86.81
28606;BME280;46498;49.968;7.754;2023-05-14T19:14:55;-18704.00;;;13.38;88.24
28606;BME280;46498;49.968;7.754;2023-05-14T19:19:55;-18703.00;;;13.36;86.33
28606;BME280;46498;49.968;7.754;2023-05-14T19:24:56;-18701.00;;;13.27;86.26
28606;BME280;46498;49.968;7.754;2023-05-14T19:29:57;-18700.00;;;13.26;84.66
28606;BME280;46498;49.968;7.754;2023-05-14T19:34:58;-18697.00;;;13.16;87.12
28606;BME280;46498;49.968;7.754;2023-05-14T19:39:58;-18691.00;;;12.97;91.98
28606;BME280;46498;49.968;7.754;2023-05-14T19:44:59;-18691.00;;;12.96;94.77
28606;BME280;46498;49.968;7.754;2023-05-14T19:50:00;-18692.00;;;12.99;90.74
28606;BME280;46498;49.968;7.754;2023-05-14T19:55:01;-18690.00;;;12.93;88.85
28606;BME280;46498;49.968;7.754;2023-05-14T20:00:03;-18694.00;;;13.06;85.67
28606;BME280;46498;49.968;7.754;2023-05-14T20:05:10;-18690.00;;;12.93;87.17
28606;BME280;46498;49.968;7.754;2023-05-14T20:10:11;-18697.00;;;13.16;87.01
28606;BME280;46498;49.968;7.754;2023-05-14T20:15:13;-18699.00;;;13.21;87.64
28606;BME280;46498;49.968;7.754;2023-05-14T20:20:14;-18699.00;;;13.22;88.43
28606;BME280;46498;49.968;7.754;2023-05-14T20:25:16;-18697.00;;;13.17;88.73
28606;BME280;46498;49.968;7.754;2023-05-14T20:30:17;-18698.00;;;13.20;87.19
28606;BME280;46498;49.968;7.754;2023-05-14T20:35:18;-18697.00;;;13.14;87.30
28606;BME280;46498;49.968;7.754;2023-05-14T20:40:19;-18699.00;;;13.22;85.15
28606;BME280;46498;49.968;7.754;2023-05-14T20:45:20;-18700.00;;;13.26;84.31
28606;BME280;46498;49.968;7.754;2023-05-14T20:50:21;-18700.00;;;13.25;83.84
28606;BME280;46498;49.968;7.754;2023-05-14T20:55:22;-18703.00;;;13.36;83.28
28606;BME280;46498;49.968;7.754;2023-05-14T21:00:24;-18704.00;;;13.37;81.53
28606;BME280;46498;49.968;7.754;2023-05-14T21:05:25;-18705.00;;;13.40;79.74
28606;BME280;46498;49.968;7.754;2023-05-14T21:10:27;-18701.00;;;13.30;81.26
28606;BME280;46498;49.968;7.754;2023-05-14T21:15:28;-18701.00;;;13.29;82.84
28606;BME280;46498;49.968;7.754;2023-05-14T21:20:30;-18699.00;;;13.22;86.41
28606;BME280;46498;49.968;7.754;2023-05-14T21:25:31;-18697.00;;;13.18;88.31
28606;BME280;46498;49.968;7.754;2023-05-14T21:30:31;-18695.00;;;13.10;90.12
28606;BME280;46498;49.968;7.754;2023-05-14T21:35:33;-18694.00;;;13.06;90.68
28606;BME280;46498;49.968;7.754;2023-05-14T21:40:33;-18689.00;;;12.92;95.26
28606;BME280;46498;49.968;7.754;2023-05-14T21:45:34;-18684.00;;;12.76;99.44
28606;BME280;46498;49.968;7.754;2023-05-14T21:50:35;-18679.00;;;12.59;100.00
28606;BME280;46498;49.968;7.754;2023-05-14T21:55:37;-18678.00;;;12.56;100.00
28606;BME280;46498;49.968;7.754;2023-05-14T22:00:38;-18674.00;;;12.42;100.00
28606;BME280;46498;49.968;7.754;2023-05-14T22:05:38;-18672.00;;;12.37;100.00
28606;BME280;46498;49.968;7.754;2023-05-14T22:10:39;-18672.00;;;12.38;100.00
28606;BME280;46498;49.968;7.754;2023-05-14T22:15:40;-18673.00;;;12.42;100.00
28606;BME280;46498;49.968;7.754;2023-05-14T22:20:41;-18668.00;;;12.26;100.00
28606;BME280;46498;49.968;7.754;2023-05-14T22:25:42;-18662.00;;;12.05;100.00
28606;BME280;46498;49.968;7.754;2023-05-14T22:30:43;-18654.00;;;11.81;100.00
28606;BME280;46498;49.968;7.754;2023-05-14T22:35:44;-18651.00;;;11.73;100.00
28606;BME280;46498;49.968;7.754;2023-05-14T22:40:45;-18652.00;;;11.73;100.00
28606;BME280;46498;49.968;7.754;2023-05-14T22:45:45;-18648.00;;;11.61;100.00
28606;BME280;46498;49.968;7.754;2023-05-14T22:50:46;-18643.00;;;11.47;100.00
28606;BME280;46498;49.968;7.754;2023-05-14T22:55:47;-18649.00;;;11.66;100.00
28606;BME280;46498;49.968;7.754;2023-05-14T23:00:48;-18649.00;;;11.64;100.00
28606;BME280;46498;49.968;7.754;2023-05-14T23:05:49;-18640.00;;;11.38;100.00
28606;BME280;46498;49.968;7.754;2023-05-14T23:10:50;-18642.00;;;11.43;100.00
28606;BME280;46498;49.968;7.754;2023-05-14T23:15:50;-18643.00;;;11.47;100.00
28606;BME280;46498;49.968;7.754;2023-05-14T23:20:51;-18645.00;;;11.52;100.00
28606;BME280;46498;49.968;7.754;2023-05-14T23:25:52;-18642.00;;;11.43;100.00
28606;BME280;46498;49.968;7.754;2023-05-14T23:30:53;-18640.00;;;11.37;100.00
28606;BME280;46498;49.968;7.754;2023-05-14T23:35:54;-18635.00;;;11.23;100.00
28606;BME280;46498;49.968;7.754;2023-05-14T23:40:55;-18637.00;;;11.26;100.00
28606;BME280;46498;49.968;7.754;2023-05-14T23:45:56;-18641.00;;;11.39;100.00
28606;BME280;46498;49.968;7.754;2023-05-14T23:50:57;-18644.00;;;11.50;100.00
28606;BME280;46498;49.968;7.754;2023-05-14T23:55:57;-18645.00;;;11.54;100.00
